Time;durP1;ratioP1;P1;durP2;ratioP2;P2;SDS_P1;SDS_P2;PMS_P1;PMS_P2;Temp;Humidity;BMP_temperature;BMP_pressure;BME280_temperature;BME280_humidity;BME280_pressure;Samples;Min_cycle;Max_cycle;Signal;HPM_P1;HPM_P2
2022/01/17 00:02:12;;;;;;;28.25;13.27;;;;;;;1.61;89.87;101117.50;5590751;31;34109;-71
2022/01/17 00:05:17;;;;;;;29.33;13.20;;;;;;;1.58;90.04;101110.72;5590666;31;34844;-70
2022/01/17 00:08:20;;;;;;;27.98;12.85;;;;;;;1.64;89.86;101105.13;5590622;31;34556;-70
2022/01/17 00:11:22;;;;;;;28.35;13.40;;;;;;;1.67;89.80;101117.16;5589918;31;34882;-70
2022/01/17 00:14:32;;;;;;;26.95;12.13;;;;;;;1.67;89.44;101101.47;5590560;31;34196;-70
2022/01/17 00:17:39;;;;;;;25.52;13.32;;;;;;;1.74;88.98;101116.66;5590725;31;33596;-70
2022/01/17 00:20:46;;;;;;;27.50;12.35;;;;;;;1.79;88.71;101115.56;5590554;31;34672;-70
2022/01/17 00:23:49;;;;;;;25.25;11.90;;;;;;;1.80;88.68;101112.84;5590512;31;34142;-71
2022/01/17 00:26:52;;;;;;;27.45;12.15;;;;;;;1.89;88.25;101101.00;5590518;31;35574;-71
2022/01/17 00:30:03;;;;;;;28.55;12.88;;;;;;;1.83;88.49;101104.81;5590505;31;34781;-70
2022/01/17 00:33:05;;;;;;;28.75;13.18;;;;;;;1.95;88.10;101108.44;5590465;31;34328;-71
2022/01/17 00:36:08;;;;;;;25.98;12.65;;;;;;;1.91;88.18;101107.81;5590403;31;34220;-70
2022/01/17 00:39:11;;;;;;;27.30;13.02;;;;;;;1.91;88.47;101094.72;5590715;31;34265;-70
2022/01/17 00:42:13;;;;;;;25.12;11.57;;;;;;;1.86;88.89;101099.41;5590298;31;34945;-70
2022/01/17 00:45:19;;;;;;;27.50;12.77;;;;;;;1.88;89.08;101105.38;5589515;31;34577;-70
2022/01/17 00:48:22;;;;;;;27.60;12.80;;;;;;;1.82;89.56;101099.69;5590300;31;34865;-71
2022/01/17 00:51:24;;;;;;;31.15;14.20;;;;;;;1.92;89.24;101106.03;5590140;31;34270;-71
2022/01/17 00:54:28;;;;;;;27.80;12.52;;;;;;;1.79;89.75;101108.56;5590320;31;34184;-70
2022/01/17 00:57:30;;;;;;;28.10;12.80;;;;;;;1.78;90.32;101106.88;5590120;31;34267;-71
2022/01/17 01:00:34;;;;;;;27.77;12.45;;;;;;;2.03;88.99;101101.78;5590187;31;34290;-70
2022/01/17 01:03:37;;;;;;;26.42;13.38;;;;;;;2.07;88.84;101097.22;5589419;31;34193;-70
2022/01/17 01:06:39;;;;;;;34.58;13.73;;;;;;;2.06;88.67;101088.53;5590553;31;35504;-71
2022/01/17 01:09:55;;;;;;;31.60;13.75;;;;;;;2.07;88.74;101092.00;5590385;31;34771;-70
2022/01/17 01:13:00;;;;;;;26.77;13.02;;;;;;;2.06;88.87;101085.06;5589504;31;34225;-70
2022/01/17 01:19:20;;;;;;;29.33;14.10;;;;;;;2.08;88.93;101084.03;5590060;31;34262;-70
2022/01/17 01:29:05;;;;;;;26.80;13.15;;;;;;;2.02;90.02;101078.34;5590287;31;34267;-70
2022/01/17 01:32:10;;;;;;;26.48;13.62;;;;;;;2.10;89.36;101083.94;5589882;31;34170;-70
2022/01/17 01:35:15;;;;;;;28.33;13.13;;;;;;;2.01;90.00;101077.50;5590163;31;35484;-70
2022/01/17 01:38:18;;;;;;;25.12;12.05;;;;;;;1.89;90.65;101067.78;5589119;31;34208;-70
2022/01/17 01:41:21;;;;;;;28.05;13.15;;;;;;;1.95;90.53;101056.97;5589920;31;34946;-70
2022/01/17 01:44:25;;;;;;;27.98;13.65;;;;;;;1.97;90.32;101051.63;5589864;31;34489;-70
2022/01/17 01:47:27;;;;;;;27.80;12.52;;;;;;;1.93;90.64;101047.53;5589767;31;34988;-71
2022/01/17 01:50:30;;;;;;;30.12;13.07;;;;;;;1.92;90.71;101048.47;5589768;31;34979;-70
2022/01/17 01:53:33;;;;;;;24.33;11.85;;;;;;;1.84;91.13;101042.88;5589578;31;34175;-70
2022/01/17 01:56:38;;;;;;;26.35;12.70;;;;;;;1.85;91.24;101055.84;5589197;31;34218;-70
2022/01/17 01:59:40;;;;;;;19.00;10.43;;;;;;;1.90;90.64;101055.56;5589657;31;34246;-70
2022/01/17 02:02:43;;;;;;;23.00;11.00;;;;;;;2.05;89.72;101060.69;5589715;31;34195;-70
2022/01/17 02:05:46;;;;;;;24.45;11.05;;;;;;;2.12;89.26;101058.53;5589680;31;34233;-70
2022/01/17 02:08:49;;;;;;;24.17;11.43;;;;;;;2.11;89.18;101064.69;5589664;31;34851;-70
2022/01/17 02:11:52;;;;;;;24.58;12.15;;;;;;;2.14;89.03;101059.25;5588950;31;34177;-70
2022/01/17 02:14:55;;;;;;;21.62;11.07;;;;;;;2.18;88.60;101074.66;5589582;31;35501;-70
2022/01/17 02:17:58;;;;;;;23.05;11.15;;;;;;;2.16;88.75;101062.62;5589537;31;34116;-70
2022/01/17 02:24:20;;;;;;;20.65;10.23;;;;;;;2.19;88.40;101054.56;5589556;31;34196;-70
2022/01/17 02:27:22;;;;;;;21.87;10.15;;;;;;;2.15;88.66;101046.06;5589476;31;34321;-70
2022/01/17 02:30:27;;;;;;;18.40;9.48;;;;;;;2.13;88.65;101039.28;5589418;31;34973;-70
2022/01/17 02:33:29;;;;;;;18.95;9.82;;;;;;;2.25;88.16;101048.09;5589732;31;34247;-70
2022/01/17 02:36:32;;;;;;;16.73;8.98;;;;;;;2.31;87.42;101047.72;5589263;31;34491;-71
2022/01/17 02:39:34;;;;;;;20.73;9.15;;;;;;;2.28;87.36;101035.66;5589450;31;34318;-70
2022/01/17 02:42:37;;;;;;;19.87;9.45;;;;;;;2.33;86.72;101040.56;5589340;31;34342;-70
2022/01/17 02:48:57;;;;;;;16.60;9.30;;;;;;;2.40;86.37;101041.88;5589470;31;34472;-70
2022/01/17 02:51:59;;;;;;;16.75;9.18;;;;;;;2.36;86.61;101041.25;5589093;31;34477;-70
2022/01/17 02:55:03;;;;;;;15.88;8.25;;;;;;;2.48;85.84;101037.81;5588811;31;34178;-70
2022/01/17 02:58:06;;;;;;;14.90;8.10;;;;;;;2.57;85.14;101015.41;5589417;31;34553;-71
2022/01/17 03:01:16;;;;;;;14.57;7.87;;;;;;;2.58;84.93;101015.31;5589043;31;34268;-71
2022/01/17 03:04:18;;;;;;;14.60;7.78;;;;;;;2.66;84.71;101011.38;5589010;31;34523;-72
2022/01/17 03:07:21;;;;;;;15.55;8.27;;;;;;;2.62;84.21;101016.78;5588632;31;34514;-70
2022/01/17 03:13:36;;;;;;;10.95;6.03;;;;;;;2.73;83.25;101015.25;5588932;31;34223;-71
2022/01/17 03:16:45;;;;;;;15.13;8.50;;;;;;;2.84;82.51;101016.22;5588758;31;34480;-71
2022/01/17 03:19:48;;;;;;;17.10;7.12;;;;;;;2.88;82.39;101017.69;5589143;31;34807;-70
2022/01/17 03:22:50;;;;;;;15.23;8.35;;;;;;;2.87;82.09;101010.75;5588785;31;34252;-70
2022/01/17 03:25:54;;;;;;;12.00;6.90;;;;;;;2.95;81.80;101011.06;5589034;31;34820;-71
2022/01/17 03:29:04;;;;;;;13.43;6.68;;;;;;;2.86;81.94;101008.22;5588537;31;34427;-71
2022/01/17 03:32:07;;;;;;;14.10;6.95;;;;;;;2.95;81.39;101012.87;5588601;31;34274;-71
2022/01/17 03:35:10;;;;;;;12.40;6.55;;;;;;;2.99;80.77;101001.25;5588700;31;34280;-70
2022/01/17 03:38:17;;;;;;;11.85;6.30;;;;;;;2.96;80.63;100986.53;5588352;31;34191;-70
2022/01/17 03:41:19;;;;;;;12.18;6.55;;;;;;;2.95;80.62;100984.84;5588273;31;34893;-70
2022/01/17 03:44:22;;;;;;;12.45;6.60;;;;;;;2.93;80.89;100991.16;5588255;31;34148;-71
2022/01/17 03:47:24;;;;;;;13.88;6.65;;;;;;;2.92;80.72;101000.81;5588162;31;34240;-71
2022/01/17 03:50:28;;;;;;;11.93;6.32;;;;;;;2.92;80.55;100998.19;5588198;31;34345;-70
2022/01/17 03:53:31;;;;;;;12.37;6.68;;;;;;;3.00;80.12;100989.81;5588323;31;34398;-70
2022/01/17 03:56:34;;;;;;;10.93;5.78;;;;;;;3.02;80.14;100999.25;5588066;31;34852;-70
2022/01/17 03:59:36;;;;;;;10.13;5.80;;;;;;;2.90;80.30;100994.84;5588075;31;34133;-71
2022/01/17 04:02:40;;;;;;;14.00;6.18;;;;;;;3.03;79.88;100973.88;5587189;31;35377;-70
2022/01/17 04:05:44;;;;;;;13.60;6.40;;;;;;;2.98;79.81;100975.97;5587883;31;34305;-71
2022/01/17 04:08:46;;;;;;;10.75;5.62;;;;;;;2.89;80.29;100982.69;5587874;31;34176;-70
2022/01/17 04:11:49;;;;;;;11.80;6.07;;;;;;;2.98;79.77;100989.06;5587846;31;35375;-71
2022/01/17 04:14:55;;;;;;;12.63;6.35;;;;;;;2.98;79.73;100999.56;5588013;31;34572;-70
2022/01/17 04:17:59;;;;;;;12.05;5.93;;;;;;;3.01;79.46;101010.66;5587560;31;34298;-70
2022/01/17 04:21:03;;;;;;;12.73;5.80;;;;;;;2.92;79.93;101016.53;5590611;31;34269;-70
2022/01/17 04:24:06;;;;;;;11.40;6.30;;;;;;;2.87;80.21;101023.84;5590567;31;34243;-70
2022/01/17 04:27:08;;;;;;;12.35;6.45;;;;;;;2.92;80.08;101031.41;5590558;31;35502;-70
2022/01/17 04:30:13;;;;;;;11.27;5.85;;;;;;;3.10;79.06;101029.34;5590387;31;35462;-70
2022/01/17 04:33:16;;;;;;;17.05;6.20;;;;;;;3.13;78.73;101016.03;5590474;31;34562;-71
2022/01/17 04:36:19;;;;;;;12.80;6.15;;;;;;;3.09;79.18;101002.28;5590453;31;34548;-70
2022/01/17 04:39:21;;;;;;;11.85;6.60;;;;;;;3.15;79.14;100999.22;5590390;31;34226;-70
2022/01/17 04:42:28;;;;;;;13.43;6.87;;;;;;;3.11;79.25;100987.28;5590438;31;34264;-71
2022/01/17 04:45:31;;;;;;;12.30;6.75;;;;;;;3.07;79.60;100991.06;5590357;31;34204;-71
2022/01/17 04:48:37;;;;;;;12.25;6.68;;;;;;;3.06;79.94;100992.84;5590219;31;35509;-71
2022/01/17 04:51:40;;;;;;;13.40;7.07;;;;;;;3.06;79.97;100992.84;5590227;31;35589;-70
2022/01/17 04:54:45;;;;;;;13.88;7.68;;;;;;;3.08;79.89;100994.53;5590603;31;34873;-71
2022/01/17 04:57:48;;;;;;;14.85;7.90;;;;;;;3.16;79.65;100995.66;5590176;31;34585;-71
2022/01/17 05:00:51;;;;;;;16.08;6.93;;;;;;;3.16;79.59;100994.81;5590205;31;35380;-71
2022/01/17 05:03:54;;;;;;;14.55;7.37;;;;;;;3.19;79.58;100976.28;5590608;31;35428;-71
2022/01/17 05:06:58;;;;;;;14.13;6.93;;;;;;;3.18;79.63;100964.12;5590125;31;35013;-70
2022/01/17 05:10:04;;;;;;;10.98;5.32;;;;;;;3.27;79.30;100958.22;5590133;31;35412;-70
2022/01/17 05:13:08;;;;;;;15.60;7.45;;;;;;;3.25;79.05;100953.06;5590109;31;34581;-70
2022/01/17 05:16:14;;;;;;;14.32;7.50;;;;;;;3.25;79.17;100958.31;5590160;31;34973;-71
2022/01/17 05:22:41;;;;;;;13.43;7.07;;;;;;;3.27;78.86;100958.22;5590304;31;34164;-70
2022/01/17 05:25:44;;;;;;;13.45;7.03;;;;;;;3.20;79.51;100965.66;5589944;31;34247;-70
2022/01/17 05:28:46;;;;;;;14.25;6.75;;;;;;;3.22;79.02;100966.41;5589940;31;34313;-70
2022/01/17 05:31:49;;;;;;;11.98;6.50;;;;;;;3.26;78.94;100960.00;5588115;31;34101;-70
2022/01/17 05:34:51;;;;;;;13.52;7.12;;;;;;;3.25;79.02;100963.56;5589889;31;34247;-71
2022/01/17 05:37:54;;;;;;;11.48;5.35;;;;;;;3.29;78.66;100962.41;5589823;31;34193;-69
2022/01/17 05:40:58;;;;;;;12.13;7.03;;;;;;;3.31;78.63;100957.91;5590149;31;34380;-70
2022/01/17 05:44:02;;;;;;;13.35;7.10;;;;;;;3.28;78.62;100938.94;5589837;31;34923;-70
2022/01/17 05:47:06;;;;;;;12.55;6.18;;;;;;;3.28;78.72;100946.78;5589753;31;34549;-70
2022/01/17 05:50:09;;;;;;;11.23;6.55;;;;;;;3.38;77.63;100951.28;5589558;31;34341;-70
2022/01/17 05:53:14;;;;;;;11.23;5.97;;;;;;;3.47;77.22;100952.44;5589994;31;34158;-72
2022/01/17 05:56:16;;;;;;;10.98;6.15;;;;;;;3.63;75.70;100950.38;5590165;31;34321;-71
2022/01/17 05:59:19;;;;;;;11.02;5.62;;;;;;;3.69;75.41;100943.84;5589657;31;34512;-70
2022/01/17 06:02:22;;;;;;;11.70;5.55;;;;;;;3.71;75.25;100942.81;5590033;31;34147;-70
2022/01/17 06:05:26;;;;;;;11.30;5.53;;;;;;;3.75;75.31;100949.50;5589696;31;34691;-70
2022/01/17 06:08:31;;;;;;;12.00;5.95;;;;;;;3.67;75.28;100949.22;5589617;31;34243;-70
2022/01/17 06:11:34;;;;;;;10.23;5.65;;;;;;;3.73;75.00;100954.00;5589594;31;34252;-70
2022/01/17 06:14:38;;;;;;;12.48;5.80;;;;;;;3.74;74.63;100962.72;5589576;31;34200;-70
2022/01/17 06:17:41;;;;;;;11.50;5.35;;;;;;;3.70;74.79;100956.03;5589379;31;34185;-70
2022/01/17 06:20:44;;;;;;;8.48;4.75;;;;;;;3.72;74.32;100956.78;5589333;31;34838;-70
2022/01/17 06:23:48;;;;;;;12.25;5.95;;;;;;;3.93;73.24;100960.44;5589423;31;34251;-70
2022/01/17 06:26:51;;;;;;;12.48;5.25;;;;;;;3.79;74.01;100953.56;5589182;31;34130;-71
2022/01/17 06:29:54;;;;;;;9.90;5.45;;;;;;;3.81;73.82;100953.47;5589060;31;34229;-70
2022/01/17 06:32:57;;;;;;;8.75;4.80;;;;;;;3.77;74.16;100952.88;5589140;31;35176;-75
2022/01/17 06:35:59;;;;;;;13.25;5.47;;;;;;;3.87;73.51;100961.72;5589521;31;34285;-70
2022/01/17 06:39:04;;;;;;;10.80;5.75;;;;;;;3.93;73.52;100955.19;5589074;31;34537;-70
2022/01/17 06:42:08;;;;;;;11.82;4.70;;;;;;;3.82;74.18;100932.37;5588729;31;34987;-70
2022/01/17 06:45:12;;;;;;;10.65;5.57;;;;;;;3.85;73.76;100921.66;5589058;31;34926;-70
2022/01/17 06:48:15;;;;;;;11.68;5.95;;;;;;;3.86;73.46;100914.63;5588509;31;34695;-70
2022/01/17 06:51:18;;;;;;;9.35;5.20;;;;;;;4.01;73.24;100917.91;5588765;31;34190;-70
2022/01/17 06:54:22;;;;;;;10.32;5.20;;;;;;;3.99;72.80;100927.66;5588988;31;34687;-70
2022/01/17 06:57:26;;;;;;;8.50;4.90;;;;;;;4.14;72.14;100944.94;5588952;31;34608;-70
2022/01/17 07:00:29;;;;;;;7.85;4.60;;;;;;;4.17;71.96;100940.28;5588794;31;34132;-70
2022/01/17 07:03:32;;;;;;;7.93;4.55;;;;;;;4.22;71.72;100939.94;5589009;31;34327;-70
2022/01/17 07:06:37;;;;;;;11.30;5.03;;;;;;;4.38;70.99;100932.59;5588738;31;34226;-70
2022/01/17 07:09:40;;;;;;;7.57;3.92;;;;;;;4.47;70.38;100925.81;5588779;31;34214;-70
2022/01/17 07:12:42;;;;;;;9.23;4.55;;;;;;;4.55;70.27;100913.78;5588715;31;34683;-70
2022/01/17 07:15:46;;;;;;;7.32;4.68;;;;;;;4.57;70.14;100896.09;5588790;31;34167;-70
2022/01/17 07:18:49;;;;;;;8.98;4.15;;;;;;;4.54;70.65;100887.63;5587741;31;34328;-70
2022/01/17 07:21:51;;;;;;;11.32;4.45;;;;;;;4.54;70.62;100893.72;5588659;31;34929;-71
2022/01/17 07:25:13;;;;;;;9.27;4.55;;;;;;;4.51;70.71;100891.31;5588525;31;34300;-70
2022/01/17 07:28:16;;;;;;;8.13;4.43;;;;;;;4.59;70.39;100893.38;5587690;31;34242;-70
2022/01/17 07:31:20;;;;;;;7.10;3.92;;;;;;;4.57;70.29;100911.87;5588371;31;34232;-70
2022/01/17 07:34:22;;;;;;;7.97;4.10;;;;;;;4.55;70.52;100939.22;5588199;31;34272;-70
2022/01/17 07:37:25;;;;;;;9.25;4.62;;;;;;;4.57;70.48;100956.53;5587912;31;34657;-70
2022/01/17 07:40:29;;;;;;;6.60;4.50;;;;;;;4.60;70.48;100974.69;5588357;31;34274;-71
2022/01/17 07:43:32;;;;;;;8.48;4.40;;;;;;;4.72;69.96;101009.75;5588029;31;35757;-71
2022/01/17 07:46:48;;;;;;;7.18;3.95;;;;;;;4.78;69.50;101036.41;5587923;31;34365;-70
2022/01/17 07:49:53;;;;;;;7.03;3.75;;;;;;;4.80;69.63;101033.66;5587309;31;34351;-70
2022/01/17 07:53:10;;;;;;;5.53;3.78;;;;;;;4.88;69.51;101007.66;5588388;31;34495;-71
2022/01/17 07:56:14;;;;;;;8.45;4.00;;;;;;;4.89;69.52;100976.94;5590436;31;34273;-70
2022/01/17 07:59:17;;;;;;;6.57;3.72;;;;;;;4.91;69.31;100959.25;5590399;31;34905;-72
2022/01/17 08:02:20;;;;;;;7.15;4.22;;;;;;;4.80;70.07;100928.50;5590599;31;34880;-70
2022/01/17 08:05:23;;;;;;;8.75;3.80;;;;;;;4.84;70.15;100948.38;5590520;31;34182;-70
2022/01/17 08:08:26;;;;;;;7.40;4.03;;;;;;;4.80;70.38;100945.13;5590089;31;34208;-71
2022/01/17 08:11:28;;;;;;;5.20;3.40;;;;;;;4.79;70.21;100930.31;5589772;31;34168;-71
2022/01/17 08:14:31;;;;;;;7.40;3.62;;;;;;;4.87;70.05;100897.34;5589950;31;34901;-71
2022/01/17 08:17:34;;;;;;;7.90;4.37;;;;;;;4.85;70.37;100871.16;5590910;31;35564;-70
2022/01/17 08:20:37;;;;;;;7.32;4.03;;;;;;;4.89;70.35;100863.91;5590513;31;34158;-70
2022/01/17 08:23:40;;;;;;;8.45;4.47;;;;;;;4.92;70.53;100847.88;5590440;31;34160;-71
2022/01/17 08:26:43;;;;;;;7.28;3.95;;;;;;;4.93;70.21;100829.34;5590459;31;34340;-69
2022/01/17 08:29:46;;;;;;;7.93;3.83;;;;;;;5.01;70.06;100857.66;5590203;31;34676;-70
2022/01/17 08:33:09;;;;;;;7.53;4.07;;;;;;;5.01;70.08;100858.50;5590691;31;34990;-69
2022/01/17 08:36:19;;;;;;;6.65;4.10;;;;;;;5.08;69.98;100874.66;5590406;31;34241;-70
2022/01/17 08:39:24;;;;;;;11.95;3.47;;;;;;;5.06;69.97;100881.81;5590230;31;34859;-70
2022/01/17 08:42:27;;;;;;;6.97;3.87;;;;;;;5.11;69.76;100900.69;5590426;31;34157;-71
2022/01/17 08:45:30;;;;;;;8.48;4.18;;;;;;;5.07;70.06;100931.66;5590662;31;34212;-71
2022/01/17 08:48:44;;;;;;;7.97;3.95;;;;;;;5.09;70.30;100950.78;5590402;31;34293;-70
2022/01/17 08:51:47;;;;;;;7.18;3.90;;;;;;;5.15;70.30;100976.59;5589732;31;34232;-70
2022/01/17 08:54:50;;;;;;;7.93;4.00;;;;;;;5.23;70.27;100976.00;5589152;31;34198;-70
2022/01/17 08:57:57;;;;;;;8.38;4.07;;;;;;;5.23;69.94;100944.44;5590237;31;34267;-70
2022/01/17 09:01:00;;;;;;;7.60;3.83;;;;;;;5.35;69.94;100950.53;5590286;31;34688;-70
2022/01/17 09:04:02;;;;;;;10.27;4.47;;;;;;;5.23;70.75;100887.41;5589269;31;34634;-70
2022/01/17 09:07:05;;;;;;;8.00;3.60;;;;;;;5.22;71.03;100887.53;5589982;31;34264;-72
2022/01/17 09:10:08;;;;;;;7.60;4.20;;;;;;;5.28;70.71;100873.88;5590492;31;34602;-70
2022/01/17 09:13:18;;;;;;;7.20;3.60;;;;;;;5.24;70.83;100857.53;5590092;31;34687;-70
2022/01/17 09:16:21;;;;;;;7.87;4.47;;;;;;;5.30;70.77;100847.47;5590232;31;34293;-70
2022/01/17 09:19:24;;;;;;;7.07;4.20;;;;;;;5.39;70.24;100860.72;5589868;31;34569;-70
2022/01/17 09:22:29;;;;;;;7.40;4.20;;;;;;;5.38;70.30;100830.09;5590254;31;34312;-72
2022/01/17 09:25:35;;;;;;;8.82;4.10;;;;;;;5.37;70.14;100817.94;5589887;31;34896;-71
2022/01/17 09:28:37;;;;;;;10.40;4.40;;;;;;;5.51;69.87;100819.44;5590102;31;34252;-71
2022/01/17 09:31:40;;;;;;;10.77;4.30;;;;;;;5.57;69.60;100777.66;5590184;31;34880;-69
2022/01/17 09:34:46;;;;;;;9.40;4.10;;;;;;;5.54;69.43;100808.66;5589731;31;34156;-72
2022/01/17 09:37:51;;;;;;;7.47;4.35;;;;;;;5.57;69.66;100788.16;5589827;31;34187;-71
2022/01/17 09:40:54;;;;;;;8.77;4.57;;;;;;;5.52;69.83;100768.47;5589793;31;34939;-70
2022/01/17 09:44:15;;;;;;;8.60;4.30;;;;;;;5.57;69.62;100766.28;5589791;31;34272;-68
2022/01/17 09:47:18;;;;;;;7.47;4.25;;;;;;;5.56;69.27;100726.00;5589846;31;34154;-69
2022/01/17 09:50:32;;;;;;;6.78;4.12;;;;;;;5.53;69.51;100725.41;5589224;31;35494;-69
2022/01/17 09:53:38;;;;;;;11.25;4.87;;;;;;;5.63;69.24;100715.78;5589488;31;34925;-70
2022/01/17 09:56:43;;;;;;;8.70;3.90;;;;;;;5.66;68.91;100720.81;5589477;31;34900;-70
2022/01/17 09:59:46;;;;;;;6.40;3.90;;;;;;;5.67;69.09;100717.19;5589445;31;34363;-70
2022/01/17 10:02:49;;;;;;;9.13;5.00;;;;;;;5.48;69.88;100741.56;5589687;31;34952;-70
2022/01/17 10:05:53;;;;;;;9.43;4.57;;;;;;;5.53;69.99;100722.75;5589946;31;34306;-69
2022/01/17 10:09:24;;;;;;;8.55;4.47;;;;;;;5.52;70.00;100707.94;5589436;31;34149;-70
2022/01/17 10:12:27;;;;;;;8.30;4.85;;;;;;;5.55;69.92;100720.84;5589317;31;34139;-69
2022/01/17 10:15:43;;;;;;;14.50;4.55;;;;;;;5.58;69.80;100723.22;5589426;31;34572;-70
2022/01/17 10:18:53;;;;;;;7.97;4.68;;;;;;;5.52;70.40;100721.09;5589199;31;34366;-71
2022/01/17 10:21:59;;;;;;;10.38;5.00;;;;;;;5.39;70.86;100705.50;5589459;31;34177;-70
2022/01/17 10:25:27;;;;;;;7.50;4.80;;;;;;;5.37;71.10;100706.59;5589778;31;34910;-70
2022/01/17 10:28:47;;;;;;;9.40;5.03;;;;;;;5.32;71.65;100700.88;5589110;31;34137;-70
2022/01/17 10:35:33;;;;;;;9.75;5.00;;;;;;;5.38;71.17;100669.62;5589013;31;35497;-68
2022/01/17 10:38:36;;;;;;;8.23;5.00;;;;;;;5.35;71.59;100650.63;5589168;31;34203;-67
2022/01/17 10:41:38;;;;;;;8.05;4.87;;;;;;;5.39;71.64;100660.78;5588401;31;34899;-73
2022/01/17 10:44:42;;;;;;;10.25;4.78;;;;;;;5.45;71.51;100643.63;5589022;31;34280;-70
2022/01/17 10:47:48;;;;;;;9.80;5.28;;;;;;;5.58;71.46;100653.00;5589119;31;34197;-70
2022/01/17 10:50:51;;;;;;;8.23;4.82;;;;;;;5.76;70.52;100655.06;5589258;31;34848;-69
2022/01/17 10:53:55;;;;;;;11.48;4.82;;;;;;;5.81;70.61;100656.31;5588856;31;34325;-70
2022/01/17 10:56:58;;;;;;;9.60;4.90;;;;;;;5.74;70.90;100665.72;5588419;31;34863;-71
2022/01/17 11:00:19;;;;;;;8.18;5.22;;;;;;;5.65;70.90;100629.63;5589255;31;34243;-70
2022/01/17 11:03:35;;;;;;;7.37;4.43;;;;;;;5.69;71.18;100617.88;5589293;31;34155;-70
2022/01/17 11:06:47;;;;;;;8.35;3.85;;;;;;;5.89;70.46;100603.88;5588922;31;34174;-69
2022/01/17 11:09:57;;;;;;;7.50;4.60;;;;;;;6.20;69.34;100615.19;5588885;31;34313;-69
2022/01/17 11:13:03;;;;;;;6.72;3.92;;;;;;;6.49;68.00;100618.75;5589058;31;34257;-69
2022/01/17 11:16:11;;;;;;;10.63;3.72;;;;;;;6.28;68.78;100640.91;5588577;31;34802;-70
2022/01/17 11:22:42;;;;;;;9.70;4.45;;;;;;;6.29;68.57;100614.44;5573302;31;34312;-71
2022/01/17 11:25:51;;;;;;;9.20;3.80;;;;;;;6.17;69.00;100609.38;5588563;31;34852;-71
2022/01/17 11:28:54;;;;;;;10.55;4.35;;;;;;;6.15;69.10;100598.16;5589348;31;34315;-71
2022/01/17 11:31:57;;;;;;;7.65;3.85;;;;;;;6.04;69.32;100599.94;5590234;31;34273;-71
2022/01/17 11:35:05;;;;;;;7.60;3.92;;;;;;;6.15;68.84;100595.53;5590946;31;34186;-72
2022/01/17 11:38:19;;;;;;;5.82;3.42;;;;;;;6.07;69.17;100607.56;5590907;31;34207;-71
2022/01/17 11:41:26;;;;;;;5.65;3.28;;;;;;;5.99;68.56;100610.03;5591043;31;34254;-69
2022/01/17 11:44:34;;;;;;;6.40;3.17;;;;;;;6.10;68.00;100617.81;5591198;31;34116;-69
2022/01/17 11:47:52;;;;;;;4.80;2.87;;;;;;;6.10;67.79;100595.91;5590713;31;34251;-70
2022/01/17 11:50:58;;;;;;;5.80;2.60;;;;;;;6.16;67.27;100592.75;5590645;31;34843;-70
2022/01/17 11:54:09;;;;;;;4.20;2.87;;;;;;;6.20;66.73;100590.66;5590725;31;34115;-68
2022/01/17 11:57:21;;;;;;;8.15;2.78;;;;;;;6.15;67.01;100600.78;5590759;31;34240;-70
2022/01/17 12:00:30;;;;;;;4.65;2.92;;;;;;;6.15;66.94;100613.97;5589681;31;34198;-71
2022/01/17 12:03:53;;;;;;;4.73;3.00;;;;;;;6.11;67.21;100576.50;5590748;31;34360;-70
2022/01/17 12:06:59;;;;;;;5.80;3.17;;;;;;;6.12;67.09;100555.31;5590661;31;34947;-71
2022/01/17 12:10:14;;;;;;;3.92;2.45;;;;;;;6.08;67.56;100539.91;5590637;31;34973;-70
2022/01/17 12:13:24;;;;;;;6.57;2.92;;;;;;;6.08;67.66;100532.00;5590839;31;34243;-71
2022/01/17 12:16:30;;;;;;;;;;;;;;;6.09;67.52;100541.59;5590864;31;34141;-70
2022/01/17 12:19:34;;;;;;;6.12;2.70;;;;;;;6.01;67.93;100544.88;5590560;31;35028;-70
2022/01/17 12:22:39;;;;;;;5.85;3.12;;;;;;;6.00;68.35;100540.56;5590188;31;34890;-70
2022/01/17 12:25:42;;;;;;;5.82;2.60;;;;;;;5.98;68.75;100539.06;5590321;31;34142;-71
2022/01/17 12:28:53;;;;;;;5.37;3.08;;;;;;;5.98;68.94;100539.06;5590495;31;34137;-71
2022/01/17 12:31:57;;;;;;;8.65;2.85;;;;;;;5.87;69.63;100525.97;5589266;31;35411;-71
2022/01/17 12:35:03;;;;;;;9.30;3.22;;;;;;;5.91;70.02;100516.84;5590357;31;34299;-69
2022/01/17 12:38:13;;;;;;;5.03;2.55;;;;;;;5.85;69.82;100502.41;5590422;31;34190;-70
2022/01/17 12:41:37;;;;;;;4.62;2.70;;;;;;;5.85;69.57;100546.34;5589971;31;34614;-69
2022/01/17 12:44:43;;;;;;;4.22;3.03;;;;;;;5.86;68.85;100504.06;5590106;31;34373;-70
2022/01/17 12:47:48;;;;;;;5.72;3.17;;;;;;;5.80;69.49;100528.31;5589331;31;34831;-71
2022/01/17 12:50:52;;;;;;;16.10;3.97;;;;;;;5.90;68.67;100515.19;5589951;31;35030;-68
2022/01/17 12:53:54;;;;;;;4.85;3.10;;;;;;;5.93;68.56;100505.22;5590183;31;34681;-69
2022/01/17 12:56:59;;;;;;;6.80;2.92;;;;;;;5.90;69.13;100515.19;5590216;31;34855;-69
2022/01/17 13:00:09;;;;;;;5.55;3.30;;;;;;;5.89;68.93;100519.63;5590427;31;34167;-69
2022/01/17 13:03:14;;;;;;;6.15;2.87;;;;;;;5.92;69.15;100506.19;5590151;31;34148;-68
2022/01/17 13:06:19;;;;;;;7.05;3.42;;;;;;;5.95;69.19;100487.50;5589327;31;34920;-70
2022/01/17 13:09:24;;;;;;;6.25;3.83;;;;;;;5.92;69.26;100502.72;5590088;31;34158;-69
2022/01/17 13:12:30;;;;;;;7.43;3.85;;;;;;;5.95;69.34;100503.31;5590075;31;34893;-70
2022/01/17 13:15:35;;;;;;;6.93;3.20;;;;;;;6.01;68.93;100484.31;5590214;31;34207;-72
2022/01/17 13:18:38;;;;;;;6.47;3.20;;;;;;;6.05;68.63;100505.94;5590331;31;34100;-70
2022/01/17 13:21:42;;;;;;;5.55;3.20;;;;;;;6.06;68.61;100495.25;5589883;31;34919;-70
2022/01/17 13:24:54;;;;;;;8.65;3.28;;;;;;;6.07;68.19;100510.09;5589636;31;34286;-69
2022/01/17 13:28:00;;;;;;;7.47;3.60;;;;;;;6.04;68.63;100488.47;5589741;31;34904;-69
2022/01/17 13:31:25;;;;;;;6.05;3.17;;;;;;;6.01;68.90;100476.41;5589491;31;34405;-73
2022/01/17 13:34:28;;;;;;;5.95;3.37;;;;;;;6.04;68.85;100477.94;5580048;31;34057;-69
2022/01/17 13:37:31;;;;;;;6.50;3.58;;;;;;;5.97;69.44;100488.19;5590271;31;34160;-69
2022/01/17 13:40:34;;;;;;;7.53;3.37;;;;;;;5.93;69.75;100472.78;5590192;31;34250;-70
2022/01/17 13:43:50;;;;;;;5.82;3.40;;;;;;;5.84;70.53;100484.94;5589793;31;34875;-69
2022/01/17 13:46:58;;;;;;;5.78;3.55;;;;;;;5.81;70.90;100490.47;5589761;31;34569;-69
2022/01/17 13:50:02;;;;;;;5.00;3.30;;;;;;;5.77;71.08;100496.12;5589361;31;34224;-69
2022/01/17 13:53:05;;;;;;;6.32;3.53;;;;;;;5.79;70.93;100473.16;5588961;31;34307;-69
2022/01/17 13:56:08;;;;;;;6.72;3.60;;;;;;;5.77;71.33;100480.31;5589663;31;34909;-69
2022/01/17 13:59:14;;;;;;;5.25;3.20;;;;;;;5.80;70.95;100475.66;5589710;31;34136;-71
2022/01/17 14:02:17;;;;;;;5.25;2.92;;;;;;;5.80;71.44;100461.66;5589751;31;34215;-70
2022/01/17 14:05:36;;;;;;;8.88;3.15;;;;;;;5.81;71.37;100456.22;5589477;31;34181;-71
2022/01/17 14:08:44;;;;;;;7.97;3.37;;;;;;;5.78;71.35;100417.03;5589707;31;34180;-70
2022/01/17 14:11:47;;;;;;;6.55;3.10;;;;;;;5.84;71.14;100395.44;5589139;31;34234;-71
2022/01/17 14:14:52;;;;;;;6.82;2.83;;;;;;;5.83;71.20;100400.81;5589540;31;34649;-72
2022/01/17 14:18:10;;;;;;;4.20;2.58;;;;;;;5.88;71.34;100388.12;5589513;31;34236;-73
2022/01/17 14:21:24;;;;;;;6.20;3.20;;;;;;;5.91;71.24;100415.00;5589603;31;34122;-71
2022/01/17 14:24:44;;;;;;;3.80;2.40;;;;;;;5.86;72.10;100405.81;5589388;31;34208;-70
2022/01/17 14:28:02;;;;;;;5.57;2.90;;;;;;;5.78;72.66;100409.13;5589221;31;34485;-71
2022/01/17 14:31:14;;;;;;;8.90;3.00;;;;;;;5.75;73.19;100408.59;5589212;31;34200;-70
2022/01/17 14:34:22;;;;;;;5.37;3.20;;;;;;;5.71;73.96;100413.28;5589709;31;35429;-73
2022/01/17 14:37:27;;;;;;;5.05;2.72;;;;;;;5.74;73.94;100433.22;5589110;31;34257;-72
2022/01/17 14:40:32;;;;;;;5.82;2.80;;;;;;;5.68;74.35;100424.06;5589252;31;34091;-72
2022/01/17 14:43:38;;;;;;;6.50;2.72;;;;;;;5.65;74.73;100425.19;5589212;31;34838;-72
2022/01/17 14:46:49;;;;;;;6.97;2.97;;;;;;;5.74;73.85;100434.06;5589080;31;34187;-70
2022/01/17 14:49:56;;;;;;;4.22;2.70;;;;;;;5.74;73.97;100427.97;5589124;31;34103;-74
2022/01/17 14:52:58;;;;;;;6.85;3.15;;;;;;;5.76;74.12;100421.59;5588958;31;34347;-69
2022/01/17 15:06:00;;;;;;;8.93;2.80;;;;;;;5.75;74.15;100454.16;5588766;31;34171;-70
2022/01/17 15:09:03;;;;;;;10.00;2.75;;;;;;;5.73;74.50;100444.72;5588693;31;34224;-72